THA320 VTBD-VTUU
Flight info
| Callsign | THA320 |
|---|---|
| Flight time | 0h 51m |
| Altitude | 35000 |
| Route | ROBKA3C ROBKA A1 VENPO VENPO1C |
| Aircraft | A320/M-SDE3FGHIRWY/LB1 |
Departure
| Time | 2026-05-05 06:52 |
|---|---|
| Airport | Don Mueang International Airport (VTBD) |
Arrival
| Time | 2026-05-05 07:43 |
|---|---|
| Airport | Ubon Ratchathani Airport (VTUU) |
| Time | Latitude | Longitude | Altitude | Speed | Heading |
|---|---|---|---|---|---|
| 2026-05-05 06:37 | 13.91981 | 100.60514 | 17 ft | 0 kts | 28° |
| 2026-05-05 06:46 | 13.91960 | 100.60503 | 45 ft | 4 kts | 26° |
| 2026-05-05 06:46 | 13.91936 | 100.60491 | 18 ft | 4 kts | 18° |
| 2026-05-05 06:46 | 13.91911 | 100.60487 | 21 ft | 4 kts | 341° |
| 2026-05-05 06:47 | 13.91897 | 100.60498 | 19 ft | 4 kts | 300° |
| 2026-05-05 06:47 | 13.91881 | 100.60519 | 19 ft | 4 kts | 329° |
| 2026-05-05 06:47 | 13.91857 | 100.60526 | 20 ft | 4 kts | 11° |
| 2026-05-05 06:47 | 13.91833 | 100.60517 | 20 ft | 2 kts | 28° |
| 2026-05-05 06:48 | 13.91832 | 100.60516 | 20 ft | 1 kts | 28° |
| 2026-05-05 06:48 | 13.91845 | 100.60524 | 17 ft | 5 kts | 30° |
| 2026-05-05 06:49 | 13.91890 | 100.60548 | 18 ft | 10 kts | 26° |
| 2026-05-05 06:49 | 13.91980 | 100.60598 | 17 ft | 17 kts | 27° |
| 2026-05-05 06:49 | 13.92093 | 100.60662 | 18 ft | 20 kts | 29° |
| 2026-05-05 06:49 | 13.92221 | 100.60737 | 18 ft | 22 kts | 25° |
| 2026-05-05 06:50 | 13.92363 | 100.60813 | 18 ft | 24 kts | 28° |
| 2026-05-05 06:50 | 13.92519 | 100.60900 | 18 ft | 26 kts | 28° |
| 2026-05-05 06:50 | 13.92678 | 100.60993 | 18 ft | 22 kts | 47° |
| 2026-05-05 06:50 | 13.92663 | 100.61068 | 17 ft | 11 kts | 123° |
| 2026-05-05 06:51 | 13.92612 | 100.61164 | 16 ft | 18 kts | 120° |
| 2026-05-05 06:51 | 13.92506 | 100.61169 | 17 ft | 19 kts | 208° |
| 2026-05-05 06:51 | 13.92254 | 100.61029 | 18 ft | 71 kts | 208° |
| 2026-05-05 06:51 | 13.91615 | 100.60665 | 17 ft | 135 kts | 209° |
| 2026-05-05 06:52 | 13.90649 | 100.60106 | 19 ft | 181 kts | 209° |
| 2026-05-05 06:52 | 13.89546 | 100.59484 | 701 ft | 175 kts | 208° |
| 2026-05-05 06:52 | 13.88462 | 100.58902 | 1349 ft | 177 kts | 207° |
| 2026-05-05 06:52 | 13.87443 | 100.58118 | 1706 ft | 196 kts | 237° |
| 2026-05-05 06:53 | 13.86878 | 100.56757 | 1974 ft | 218 kts | 250° |
| 2026-05-05 06:53 | 13.86363 | 100.55211 | 2280 ft | 243 kts | 251° |
| 2026-05-05 06:53 | 13.85799 | 100.53481 | 2802 ft | 264 kts | 251° |
| 2026-05-05 06:53 | 13.85198 | 100.51660 | 3660 ft | 271 kts | 251° |
| 2026-05-05 06:54 | 13.84579 | 100.49815 | 4614 ft | 275 kts | 250° |
| 2026-05-05 06:54 | 13.83787 | 100.48015 | 5505 ft | 279 kts | 234° |
| 2026-05-05 06:54 | 13.82496 | 100.46502 | 6391 ft | 283 kts | 225° |
| 2026-05-05 06:54 | 13.81124 | 100.45029 | 7257 ft | 287 kts | 225° |
| 2026-05-05 06:55 | 13.79684 | 100.43579 | 8096 ft | 291 kts | 217° |
| 2026-05-05 06:55 | 13.77928 | 100.42528 | 8935 ft | 294 kts | 200° |
| 2026-05-05 06:55 | 13.75962 | 100.42044 | 9751 ft | 296 kts | 183° |
| 2026-05-05 06:55 | 13.73876 | 100.42115 | 10297 ft | 309 kts | 174° |
| 2026-05-05 06:56 | 13.71654 | 100.42326 | 10604 ft | 329 kts | 174° |
| 2026-05-05 06:56 | 13.69341 | 100.42560 | 11190 ft | 337 kts | 172° |
| 2026-05-05 06:56 | 13.67072 | 100.43176 | 11864 ft | 340 kts | 155° |
| 2026-05-05 06:56 | 13.65077 | 100.44495 | 12564 ft | 342 kts | 137° |
| 2026-05-05 06:57 | 13.63575 | 100.46399 | 13238 ft | 345 kts | 118° |
| 2026-05-05 06:57 | 13.62736 | 100.48707 | 13918 ft | 347 kts | 101° |
| 2026-05-05 06:57 | 13.62301 | 100.51160 | 14504 ft | 351 kts | 99° |
| 2026-05-05 06:57 | 13.61874 | 100.53610 | 15075 ft | 355 kts | 99° |
| 2026-05-05 06:58 | 13.61459 | 100.56122 | 15664 ft | 358 kts | 96° |
| 2026-05-05 06:58 | 13.61415 | 100.58697 | 16228 ft | 362 kts | 84° |
| 2026-05-05 06:58 | 13.61770 | 100.61279 | 16789 ft | 367 kts | 81° |
| 2026-05-05 06:58 | 13.62160 | 100.63895 | 17386 ft | 370 kts | 81° |
| 2026-05-05 06:59 | 13.62546 | 100.66495 | 17957 ft | 374 kts | 81° |
| 2026-05-05 06:59 | 13.62936 | 100.69156 | 18472 ft | 378 kts | 81° |
| 2026-05-05 06:59 | 13.63329 | 100.71850 | 18952 ft | 382 kts | 81° |
| 2026-05-05 06:59 | 13.63723 | 100.74569 | 19435 ft | 386 kts | 81° |
| 2026-05-05 07:00 | 13.64121 | 100.77312 | 19914 ft | 390 kts | 81° |
| 2026-05-05 07:00 | 13.64525 | 100.80086 | 20394 ft | 394 kts | 81° |
| 2026-05-05 07:00 | 13.64932 | 100.82881 | 20894 ft | 397 kts | 81° |
| 2026-05-05 07:00 | 13.65342 | 100.85705 | 21367 ft | 401 kts | 81° |
| 2026-05-05 07:01 | 13.65756 | 100.88555 | 21854 ft | 404 kts | 81° |
| 2026-05-05 07:01 | 13.66175 | 100.91425 | 22352 ft | 408 kts | 81° |
| 2026-05-05 07:01 | 13.66712 | 100.94264 | 22825 ft | 411 kts | 73° |
| 2026-05-05 07:01 | 13.67744 | 100.97024 | 23323 ft | 414 kts | 62° |
| 2026-05-05 07:02 | 13.69268 | 100.99557 | 23752 ft | 416 kts | 51° |
| 2026-05-05 07:02 | 13.71087 | 101.01886 | 24178 ft | 419 kts | 50° |
| 2026-05-05 07:02 | 13.72926 | 101.04230 | 24626 ft | 422 kts | 50° |
| 2026-05-05 07:02 | 13.74745 | 101.06560 | 25044 ft | 424 kts | 50° |
| 2026-05-05 07:03 | 13.76599 | 101.08945 | 25484 ft | 427 kts | 51° |
| 2026-05-05 07:03 | 13.78458 | 101.11339 | 25916 ft | 430 kts | 51° |
| 2026-05-05 07:03 | 13.80331 | 101.13756 | 26343 ft | 432 kts | 51° |
| 2026-05-05 07:03 | 13.82217 | 101.16187 | 26765 ft | 435 kts | 51° |
| 2026-05-05 07:04 | 13.84116 | 101.18631 | 27176 ft | 438 kts | 50° |
| 2026-05-05 07:04 | 13.86024 | 101.21083 | 27567 ft | 440 kts | 50° |
| 2026-05-05 07:04 | 13.87927 | 101.23525 | 27947 ft | 443 kts | 50° |
| 2026-05-05 07:04 | 13.90068 | 101.25813 | 28316 ft | 444 kts | 40° |
| 2026-05-05 07:05 | 13.92563 | 101.27706 | 28707 ft | 446 kts | 30° |
| 2026-05-05 07:05 | 13.95289 | 101.29253 | 29104 ft | 448 kts | 27° |
| 2026-05-05 07:05 | 13.98013 | 101.30766 | 29524 ft | 451 kts | 27° |
| 2026-05-05 07:05 | 14.00781 | 101.32313 | 29906 ft | 455 kts | 27° |
| 2026-05-05 07:06 | 14.03580 | 101.33880 | 30255 ft | 457 kts | 27° |
| 2026-05-05 07:06 | 14.06385 | 101.35452 | 30606 ft | 460 kts | 27° |
| 2026-05-05 07:06 | 14.09205 | 101.37033 | 30851 ft | 461 kts | 27° |
| 2026-05-05 07:07 | 14.14662 | 101.40494 | 30915 ft | 462 kts | 39° |
| 2026-05-05 07:07 | 14.16944 | 101.42836 | 30915 ft | 463 kts | 50° |
| 2026-05-05 07:07 | 14.18776 | 101.45518 | 30915 ft | 464 kts | 59° |
| 2026-05-05 07:08 | 14.21233 | 101.51678 | 30919 ft | 466 kts | 70° |
| 2026-05-05 07:08 | 14.23395 | 101.57979 | 30936 ft | 466 kts | 70° |
| 2026-05-05 07:09 | 14.25552 | 101.64276 | 30939 ft | 466 kts | 70° |
| 2026-05-05 07:09 | 14.27700 | 101.70546 | 30942 ft | 466 kts | 70° |
| 2026-05-05 07:10 | 14.29865 | 101.76857 | 30938 ft | 467 kts | 70° |
| 2026-05-05 07:10 | 14.32032 | 101.83177 | 30941 ft | 467 kts | 70° |
| 2026-05-05 07:11 | 14.34174 | 101.89453 | 30938 ft | 467 kts | 70° |
| 2026-05-05 07:11 | 14.36342 | 101.95783 | 30944 ft | 467 kts | 70° |
| 2026-05-05 07:12 | 14.38492 | 102.02071 | 30942 ft | 467 kts | 70° |
| 2026-05-05 07:12 | 14.40655 | 102.08431 | 30942 ft | 467 kts | 71° |
| 2026-05-05 07:13 | 14.42780 | 102.14719 | 30943 ft | 466 kts | 71° |
| 2026-05-05 07:13 | 14.44916 | 102.21023 | 30941 ft | 466 kts | 71° |
| 2026-05-05 07:14 | 14.47070 | 102.27349 | 30939 ft | 467 kts | 71° |
| 2026-05-05 07:14 | 14.49229 | 102.33678 | 30931 ft | 467 kts | 71° |
| 2026-05-05 07:15 | 14.51363 | 102.39972 | 30935 ft | 466 kts | 71° |
| 2026-05-05 07:15 | 14.53507 | 102.46300 | 30933 ft | 466 kts | 71° |
| 2026-05-05 07:16 | 14.55645 | 102.52631 | 30936 ft | 466 kts | 71° |
| 2026-05-05 07:16 | 14.57764 | 102.58912 | 30935 ft | 466 kts | 71° |
| 2026-05-05 07:17 | 14.59908 | 102.65249 | 30937 ft | 467 kts | 71° |
| 2026-05-05 07:17 | 14.62053 | 102.71609 | 30934 ft | 469 kts | 71° |
| 2026-05-05 07:18 | 14.64182 | 102.77951 | 30929 ft | 469 kts | 71° |
| 2026-05-05 07:18 | 14.66331 | 102.84317 | 30932 ft | 469 kts | 71° |
| 2026-05-05 07:19 | 14.68461 | 102.90644 | 30932 ft | 469 kts | 71° |
| 2026-05-05 07:19 | 14.70593 | 102.97013 | 30929 ft | 469 kts | 71° |
| 2026-05-05 07:20 | 14.72712 | 103.03346 | 30929 ft | 469 kts | 71° |
| 2026-05-05 07:20 | 14.74843 | 103.09721 | 30927 ft | 469 kts | 71° |
| 2026-05-05 07:21 | 14.76981 | 103.16097 | 30921 ft | 470 kts | 71° |
| 2026-05-05 07:21 | 14.79106 | 103.22446 | 30922 ft | 470 kts | 71° |
| 2026-05-05 07:22 | 14.81236 | 103.28844 | 30924 ft | 470 kts | 71° |
| 2026-05-05 07:22 | 14.83370 | 103.35267 | 30925 ft | 470 kts | 71° |
| 2026-05-05 07:23 | 14.85491 | 103.41625 | 30926 ft | 470 kts | 71° |
| 2026-05-05 07:23 | 14.87484 | 103.48068 | 30926 ft | 470 kts | 74° |
| 2026-05-05 07:24 | 14.89200 | 103.54600 | 30921 ft | 470 kts | 75° |
| 2026-05-05 07:24 | 14.90853 | 103.61052 | 30616 ft | 456 kts | 75° |
| 2026-05-05 07:24 | 14.91682 | 103.64177 | 29840 ft | 447 kts | 74° |
| 2026-05-05 07:25 | 14.92516 | 103.67246 | 28914 ft | 440 kts | 74° |
| 2026-05-05 07:25 | 14.93349 | 103.70274 | 28188 ft | 436 kts | 74° |
| 2026-05-05 07:25 | 14.94174 | 103.73268 | 27803 ft | 430 kts | 74° |
| 2026-05-05 07:25 | 14.94982 | 103.76227 | 27378 ft | 425 kts | 74° |
| 2026-05-05 07:26 | 14.95768 | 103.79128 | 26957 ft | 421 kts | 74° |
| 2026-05-05 07:26 | 14.96551 | 103.82033 | 26523 ft | 418 kts | 74° |
| 2026-05-05 07:26 | 14.97332 | 103.84928 | 26090 ft | 415 kts | 74° |
| 2026-05-05 07:26 | 14.98109 | 103.87799 | 25645 ft | 413 kts | 74° |
| 2026-05-05 07:27 | 14.98881 | 103.90656 | 25191 ft | 412 kts | 74° |
| 2026-05-05 07:27 | 14.99651 | 103.93505 | 24741 ft | 410 kts | 74° |
| 2026-05-05 07:27 | 15.00417 | 103.96346 | 24260 ft | 410 kts | 74° |
| 2026-05-05 07:27 | 15.01179 | 103.99180 | 23882 ft | 406 kts | 74° |
| 2026-05-05 07:28 | 15.01928 | 104.01966 | 23409 ft | 405 kts | 74° |
| 2026-05-05 07:28 | 15.02680 | 104.04763 | 22890 ft | 403 kts | 74° |
| 2026-05-05 07:28 | 15.03425 | 104.07541 | 22515 ft | 397 kts | 74° |
| 2026-05-05 07:28 | 15.04167 | 104.10305 | 21997 ft | 395 kts | 74° |
| 2026-05-05 07:29 | 15.04653 | 104.12112 | 21722 ft | 392 kts | 75° |
| 2026-05-05 07:29 | 15.05619 | 104.15710 | 21126 ft | 387 kts | 75° |
| 2026-05-05 07:29 | 15.06341 | 104.18396 | 20641 ft | 385 kts | 75° |
| 2026-05-05 07:29 | 15.06815 | 104.20161 | 20309 ft | 384 kts | 75° |
| 2026-05-05 07:30 | 15.07528 | 104.22820 | 19930 ft | 379 kts | 75° |
| 2026-05-05 07:30 | 15.08926 | 104.28046 | 19086 ft | 374 kts | 75° |
| 2026-05-05 07:30 | 15.09616 | 104.30632 | 18672 ft | 372 kts | 75° |
| 2026-05-05 07:31 | 15.10302 | 104.33203 | 18261 ft | 369 kts | 75° |
| 2026-05-05 07:31 | 15.10993 | 104.35724 | 17802 ft | 366 kts | 72° |
| 2026-05-05 07:31 | 15.12063 | 104.38108 | 17342 ft | 363 kts | 59° |
| 2026-05-05 07:31 | 15.13398 | 104.40325 | 16874 ft | 361 kts | 58° |
| 2026-05-05 07:32 | 15.14726 | 104.42523 | 16435 ft | 358 kts | 58° |
| 2026-05-05 07:32 | 15.16040 | 104.44701 | 15991 ft | 355 kts | 59° |
| 2026-05-05 07:32 | 15.17326 | 104.46838 | 15576 ft | 353 kts | 59° |
| 2026-05-05 07:32 | 15.18621 | 104.48994 | 15137 ft | 351 kts | 59° |
| 2026-05-05 07:33 | 15.19905 | 104.51134 | 14721 ft | 348 kts | 59° |
| 2026-05-05 07:33 | 15.21177 | 104.53259 | 14324 ft | 346 kts | 59° |
| 2026-05-05 07:33 | 15.22439 | 104.55366 | 13933 ft | 343 kts | 59° |
| 2026-05-05 07:33 | 15.23693 | 104.57459 | 13537 ft | 341 kts | 59° |
| 2026-05-05 07:34 | 15.24939 | 104.59538 | 13113 ft | 338 kts | 59° |
| 2026-05-05 07:34 | 15.26174 | 104.61600 | 12709 ft | 335 kts | 59° |
| 2026-05-05 07:34 | 15.27398 | 104.63645 | 12296 ft | 333 kts | 59° |
| 2026-05-05 07:34 | 15.28612 | 104.65675 | 11892 ft | 330 kts | 59° |
| 2026-05-05 07:35 | 15.29802 | 104.67666 | 11523 ft | 328 kts | 59° |
| 2026-05-05 07:35 | 15.30995 | 104.69666 | 11140 ft | 325 kts | 59° |
| 2026-05-05 07:35 | 15.32184 | 104.71656 | 10776 ft | 323 kts | 59° |
| 2026-05-05 07:35 | 15.33365 | 104.73631 | 10411 ft | 320 kts | 59° |
| 2026-05-05 07:36 | 15.34535 | 104.75586 | 10051 ft | 318 kts | 58° |
| 2026-05-05 07:36 | 15.35691 | 104.77520 | 9823 ft | 311 kts | 58° |
| 2026-05-05 07:36 | 15.36796 | 104.79369 | 9677 ft | 301 kts | 58° |
| 2026-05-05 07:36 | 15.37892 | 104.81202 | 9380 ft | 297 kts | 58° |
| 2026-05-05 07:37 | 15.38980 | 104.83022 | 9033 ft | 295 kts | 58° |
| 2026-05-05 07:37 | 15.40057 | 104.84827 | 8703 ft | 294 kts | 58° |
| 2026-05-05 07:37 | 15.41130 | 104.86625 | 8384 ft | 292 kts | 58° |
| 2026-05-05 07:37 | 15.42189 | 104.88389 | 8011 ft | 272 kts | 58° |
| 2026-05-05 07:38 | 15.43155 | 104.89949 | 7593 ft | 245 kts | 58° |
| 2026-05-05 07:38 | 15.43965 | 104.91399 | 7377 ft | 219 kts | 73° |
| 2026-05-05 07:38 | 15.43956 | 104.92876 | 7155 ft | 208 kts | 115° |
| 2026-05-05 07:38 | 15.43015 | 104.93942 | 6765 ft | 201 kts | 149° |
| 2026-05-05 07:39 | 15.41794 | 104.94666 | 6169 ft | 200 kts | 156° |
| 2026-05-05 07:39 | 15.40508 | 104.95059 | 5726 ft | 188 kts | 173° |
| 2026-05-05 07:39 | 15.39191 | 104.95086 | 5029 ft | 192 kts | 183° |
| 2026-05-05 07:39 | 15.37860 | 104.94993 | 4478 ft | 187 kts | 186° |
| 2026-05-05 07:40 | 15.36590 | 104.94848 | 3995 ft | 182 kts | 188° |
| 2026-05-05 07:40 | 15.35336 | 104.94651 | 3348 ft | 187 kts | 190° |
| 2026-05-05 07:40 | 15.34040 | 104.94404 | 2868 ft | 189 kts | 190° |
| 2026-05-05 07:40 | 15.32777 | 104.94167 | 2600 ft | 182 kts | 188° |
| 2026-05-05 07:41 | 15.31543 | 104.93971 | 2354 ft | 173 kts | 188° |
| 2026-05-05 07:41 | 15.30349 | 104.93766 | 2103 ft | 174 kts | 198° |
| 2026-05-05 07:41 | 15.29423 | 104.93058 | 1929 ft | 162 kts | 237° |
| 2026-05-05 07:41 | 15.28813 | 104.92098 | 1589 ft | 160 kts | 240° |
| 2026-05-05 07:42 | 15.28214 | 104.91139 | 1233 ft | 158 kts | 236° |
| 2026-05-05 07:42 | 15.27601 | 104.90250 | 1047 ft | 145 kts | 234° |
| 2026-05-05 07:42 | 15.26976 | 104.89441 | 748 ft | 145 kts | 235° |
| 2026-05-05 07:42 | 15.26352 | 104.88642 | 585 ft | 139 kts | 235° |
| 2026-05-05 07:43 | 15.25771 | 104.87872 | 415 ft | 132 kts | 234° |
| 2026-05-05 07:43 | 15.25241 | 104.87189 | 409 ft | 112 kts | 232° |
| 2026-05-05 07:43 | 15.24854 | 104.86678 | 410 ft | 67 kts | 232° |
| 2026-05-05 07:43 | 15.24682 | 104.86439 | 411 ft | 11 kts | 223° |
| 2026-05-05 07:44 | 15.24671 | 104.86468 | 411 ft | 9 kts | 49° |
| 2026-05-05 07:44 | 15.24791 | 104.86586 | 407 ft | 24 kts | 52° |
| 2026-05-05 07:44 | 15.24850 | 104.86729 | 408 ft | 22 kts | 116° |
| 2026-05-05 07:44 | 15.24734 | 104.86836 | 406 ft | 17 kts | 141° |
| 2026-05-05 07:45 | 15.24662 | 104.86897 | 404 ft | 10 kts | 141° |
| 2026-05-05 07:45 | 15.24655 | 104.86903 | 406 ft | 0 kts | 141° |